createdAt,value
2018-06-01T00:01:58.486Z,11.67
2018-06-01T00:04:26.734Z,13.93
2018-06-01T00:06:55.805Z,12.63
2018-06-01T00:09:24.411Z,12.83
2018-06-01T00:11:53.451Z,12.73
2018-06-01T00:14:21.713Z,12.10
2018-06-01T00:16:50.039Z,13.17
2018-06-01T00:19:18.366Z,13.40
2018-06-01T00:21:46.650Z,13.63
2018-06-01T00:24:14.939Z,13.40
2018-06-01T00:26:43.227Z,13.70
2018-06-01T00:29:11.496Z,13.23
2018-06-01T00:31:39.822Z,14.77
2018-06-01T00:34:08.103Z,14.07
2018-06-01T00:36:36.394Z,14.20
2018-06-01T00:39:04.662Z,14.90
2018-06-01T00:41:32.928Z,15.93
2018-06-01T00:44:01.214Z,16.37
2018-06-01T00:46:29.479Z,17.13
2018-06-01T00:48:57.763Z,18.90
2018-06-01T00:51:26.062Z,19.00
2018-06-01T00:53:54.446Z,19.53
2018-06-01T00:56:22.707Z,21.20
2018-06-01T00:58:50.999Z,20.23
2018-06-01T01:01:19.257Z,20.17
2018-06-01T01:03:47.523Z,21.67
2018-06-01T01:06:15.790Z,21.30
2018-06-01T01:08:44.098Z,20.73
2018-06-01T01:11:12.372Z,21.93
2018-06-01T01:13:40.651Z,23.97
2018-06-01T01:16:09.369Z,24.13
2018-06-01T01:18:37.650Z,22.43
2018-06-01T01:21:06.715Z,24.83
2018-06-01T01:23:35.039Z,25.20
2018-06-01T01:26:03.410Z,25.10
2018-06-01T01:28:32.435Z,26.53
2018-06-01T01:31:00.727Z,25.00
2018-06-01T01:33:29.154Z,25.27
2018-06-01T01:35:57.526Z,26.13
2018-06-01T01:38:25.954Z,27.23
2018-06-01T01:40:58.223Z,26.63
2018-06-01T01:43:26.487Z,26.93
2018-06-01T01:45:54.778Z,28.53
2018-06-01T01:48:23.031Z,29.23
2018-06-01T01:50:51.312Z,27.23
2018-06-01T01:53:19.586Z,24.63
2018-06-01T01:55:47.894Z,23.83
2018-06-01T01:58:16.149Z,23.63
2018-06-01T02:00:44.465Z,24.10
2018-06-01T02:03:13.505Z,25.60
2018-06-01T02:05:41.778Z,25.47
2018-06-01T02:08:10.049Z,25.73
2018-06-01T02:10:38.321Z,26.07
2018-06-01T02:13:06.811Z,26.80
2018-06-01T02:15:35.058Z,26.20
2018-06-01T02:18:03.359Z,24.47
2018-06-01T02:20:31.608Z,25.53
2018-06-01T02:23:00.671Z,26.33
2018-06-01T02:25:28.925Z,23.50
2018-06-01T02:27:57.328Z,30.70
2018-06-01T02:30:25.686Z,29.37
2018-06-01T02:32:55.615Z,28.53
2018-06-01T02:35:23.885Z,27.93
2018-06-01T02:37:52.178Z,28.90
2018-06-01T02:40:21.250Z,30.07
2018-06-01T02:42:49.574Z,31.07
2018-06-01T02:45:17.867Z,31.83
2018-06-01T02:47:46.141Z,31.57
2018-06-01T02:50:14.410Z,31.50
2018-06-01T02:52:42.686Z,30.93
2018-06-01T02:55:10.974Z,30.97
2018-06-01T02:57:39.278Z,33.47
2018-06-01T03:00:07.675Z,33.10
2018-06-01T03:02:36.723Z,32.07
2018-06-01T03:05:05.024Z,34.93
2018-06-01T03:07:33.303Z,33.63
2018-06-01T03:10:01.584Z,34.17
2018-06-01T03:12:30.739Z,33.63
2018-06-01T03:14:59.010Z,36.47
2018-06-01T03:17:27.303Z,36.07
2018-06-01T03:19:55.571Z,36.63
2018-06-01T03:22:23.893Z,37.70
2018-06-01T03:24:52.430Z,35.03
2018-06-01T03:27:20.807Z,36.77
2018-06-01T03:29:49.106Z,38.00
2018-06-01T03:32:17.430Z,38.17
2018-06-01T03:34:45.705Z,37.03
2018-06-01T03:37:14.068Z,39.37
2018-06-01T03:39:42.366Z,39.93
2018-06-01T03:42:10.645Z,39.13
2018-06-01T03:44:38.925Z,39.33
2018-06-01T03:47:07.194Z,40.10
2018-06-01T03:49:35.504Z,42.47
2018-06-01T03:52:03.778Z,40.93
2018-06-01T03:54:32.182Z,39.87
2018-06-01T03:57:01.217Z,40.40
2018-06-01T03:59:29.536Z,40.67
2018-06-01T04:01:57.878Z,41.87
2018-06-01T04:04:26.262Z,43.77
2018-06-01T04:06:54.567Z,40.67
2018-06-01T04:09:23.057Z,43.70
2018-06-01T04:11:52.107Z,42.07
2018-06-01T04:14:20.362Z,41.47
2018-06-01T04:16:48.639Z,43.27
2018-06-01T04:19:16.937Z,44.23
2018-06-01T04:21:45.409Z,44.30
2018-06-01T04:24:13.701Z,46.03
2018-06-01T04:26:41.993Z,43.43
2018-06-01T04:29:10.250Z,43.93
2018-06-01T04:31:38.558Z,44.07
2018-06-01T04:34:07.610Z,43.33
2018-06-01T04:36:35.902Z,43.83
2018-06-01T04:39:04.481Z,42.03
2018-06-01T04:41:32.743Z,43.93
2018-06-01T04:44:01.028Z,38.97
2018-06-01T04:46:29.439Z,44.30
2018-06-01T04:48:57.879Z,43.03
2018-06-01T04:51:26.150Z,44.47
2018-06-01T04:53:54.446Z,41.47
2018-06-01T04:56:22.703Z,41.97
2018-06-01T04:58:52.593Z,45.97
2018-06-01T05:01:20.984Z,45.20
2018-06-01T05:03:49.260Z,44.80
2018-06-01T05:06:17.574Z,49.33
2018-06-01T05:08:46.627Z,46.27
2018-06-01T05:11:14.908Z,49.10
2018-06-01T05:13:43.266Z,49.57
2018-06-01T05:16:11.577Z,42.90
2018-06-01T05:18:39.836Z,43.40
2018-06-01T05:21:08.119Z,47.63
2018-06-01T05:23:36.514Z,39.90
2018-06-01T05:26:04.839Z,45.43
2018-06-01T05:28:33.122Z,41.27
2018-06-01T05:31:01.434Z,47.47
2018-06-01T05:33:29.755Z,41.10
2018-06-01T05:35:58.041Z,43.43
2018-06-01T05:38:26.320Z,40.70
2018-06-01T05:40:54.602Z,46.60
2018-06-01T05:43:22.931Z,46.10
2018-06-01T05:45:52.100Z,39.70
2018-06-01T05:48:20.342Z,44.33
2018-06-01T05:50:48.666Z,36.87
2018-06-01T05:53:16.966Z,40.10
2018-06-01T05:55:46.021Z,43.47
2018-06-01T05:58:14.321Z,45.07
2018-06-01T06:00:43.403Z,45.90
2018-06-01T06:03:11.662Z,48.73
2018-06-01T06:05:39.934Z,45.17
2018-06-01T06:08:08.195Z,36.20
2018-06-01T06:10:38.246Z,42.30
2018-06-01T06:13:06.658Z,49.53
2018-06-01T06:15:34.878Z,44.30
2018-06-01T06:18:03.157Z,47.13
2018-06-01T06:20:31.447Z,39.27
2018-06-01T06:22:59.712Z,40.00
2018-06-01T06:25:27.974Z,35.77
2018-06-01T06:27:56.265Z,46.43
2018-06-01T06:30:26.287Z,39.30
2018-06-01T06:32:54.606Z,42.50
2018-06-01T06:35:23.679Z,48.70
2018-06-01T06:37:52.754Z,48.83
2018-06-01T06:40:21.051Z,48.17
2018-06-01T06:42:50.127Z,46.53
2018-06-01T06:45:18.395Z,47.37
2018-06-01T06:47:46.692Z,46.87
2018-06-01T06:50:14.969Z,46.40
2018-06-01T06:52:44.019Z,48.53
2018-06-01T06:55:12.324Z,49.83
2018-06-01T06:57:40.575Z,31.03
2018-06-01T07:00:08.844Z,35.10
2018-06-01T07:02:37.109Z,39.10
2018-06-01T07:05:05.491Z,41.60
2018-06-01T07:07:33.895Z,38.63
2018-06-01T07:10:02.163Z,38.13
2018-06-01T07:12:30.426Z,35.37
2018-06-01T07:14:58.708Z,25.03
2018-06-01T07:17:27.246Z,30.03
2018-06-01T07:19:55.534Z,39.27
2018-06-01T07:22:23.937Z,39.43
2018-06-01T07:24:52.231Z,47.60
2018-06-01T07:27:20.494Z,37.20
2018-06-01T07:29:48.800Z,41.47
2018-06-01T07:32:17.833Z,50.00
2018-06-01T07:34:46.113Z,48.40
2018-06-01T07:37:14.398Z,47.53
2018-06-01T07:39:42.681Z,46.80
2018-06-01T07:42:10.968Z,40.77
2018-06-01T07:44:39.251Z,40.67
2018-06-01T07:47:07.551Z,38.87
2018-06-01T07:49:36.590Z,37.43
2018-06-01T07:52:04.855Z,39.03
2018-06-01T07:54:33.190Z,34.63
2018-06-01T07:57:01.428Z,39.87
2018-06-01T07:59:29.743Z,35.87
2018-06-01T08:01:59.528Z,33.93
2018-06-01T08:04:27.785Z,22.13
2018-06-01T08:06:56.085Z,39.47
2018-06-01T08:09:24.364Z,37.03
2018-06-01T08:11:53.419Z,30.10
2018-06-01T08:14:21.701Z,31.37
2018-06-01T08:16:49.974Z,32.90
2018-06-01T08:19:18.253Z,32.60
2018-06-01T08:21:46.557Z,36.47
2018-06-01T08:24:14.840Z,37.93
2018-06-01T08:26:43.911Z,39.13
2018-06-01T08:29:12.194Z,32.67
2018-06-01T08:31:41.321Z,39.07
2018-06-01T08:34:09.665Z,35.80
2018-06-01T08:36:37.931Z,37.70
2018-06-01T08:39:06.262Z,44.03
2018-06-01T08:41:34.535Z,39.77
2018-06-01T08:44:03.560Z,44.00
2018-06-01T08:46:31.978Z,45.77
2018-06-01T08:49:00.195Z,44.90
2018-06-01T08:51:28.504Z,46.20
2018-06-01T08:53:56.775Z,32.10
2018-06-01T08:56:25.072Z,44.37
2018-06-01T08:58:53.458Z,45.73
2018-06-01T09:01:22.446Z,49.23
2018-06-01T09:03:51.585Z,45.93
2018-06-01T09:06:20.202Z,35.83
2018-06-01T09:08:48.470Z,42.43
2018-06-01T09:11:16.766Z,39.97
2018-06-01T09:13:45.080Z,44.53
2018-06-01T09:16:13.389Z,50.60
2018-06-01T09:18:41.696Z,45.27
2018-06-01T09:21:11.567Z,45.90
2018-06-01T09:23:40.011Z,50.77
2018-06-01T09:26:08.282Z,44.67
2018-06-01T09:28:37.355Z,41.00
2018-06-01T09:31:05.688Z,47.10
2018-06-01T09:33:33.948Z,46.30
2018-06-01T09:36:02.254Z,45.20
2018-06-01T09:38:30.535Z,49.67
2018-06-01T09:40:58.827Z,39.73
2018-06-01T09:43:27.143Z,36.17
2018-06-01T09:45:56.199Z,48.60
2018-06-01T09:48:24.531Z,43.87
2018-06-01T09:50:52.818Z,46.83
2018-06-01T09:53:21.154Z,49.47
2018-06-01T09:55:50.193Z,46.13
2018-06-01T09:58:18.490Z,46.53
2018-06-01T10:00:48.270Z,35.33
2018-06-01T10:03:16.558Z,41.20
2018-06-01T10:05:45.029Z,50.47
2018-06-01T10:08:13.329Z,47.97
2018-06-01T10:10:41.631Z,47.67
2018-06-01T10:13:10.686Z,51.27
2018-06-01T10:15:38.989Z,54.30
2018-06-01T10:18:07.261Z,51.80
2018-06-01T10:20:35.538Z,55.80
2018-06-01T10:23:04.585Z,58.90
2018-06-01T10:25:32.903Z,58.60
2018-06-01T10:28:01.165Z,53.23
2018-06-01T10:30:29.449Z,54.07
2018-06-01T10:32:57.742Z,55.17
2018-06-01T10:35:26.115Z,58.73
2018-06-01T10:37:55.228Z,58.30
2018-06-01T10:40:24.282Z,55.67
2018-06-01T10:42:52.549Z,64.93
2018-06-01T10:45:20.861Z,55.63
2018-06-01T10:47:49.103Z,61.03
2018-06-01T10:50:17.396Z,68.00
2018-06-01T10:52:48.082Z,57.57
2018-06-01T10:55:16.370Z,59.63
2018-06-01T10:57:44.651Z,62.33
2018-06-01T11:00:12.967Z,60.63
2018-06-01T11:02:42.733Z,59.87
2018-06-01T11:05:11.066Z,53.23
2018-06-01T11:07:40.091Z,42.10
2018-06-01T11:10:08.354Z,25.67
2018-06-01T11:12:36.641Z,26.40
2018-06-01T11:15:04.971Z,41.87
2018-06-01T11:17:34.027Z,43.97
2018-06-01T11:20:02.311Z,48.60
2018-06-01T11:22:30.588Z,43.33
2018-06-01T11:24:58.869Z,43.83
2018-06-01T11:27:27.286Z,54.37
2018-06-01T11:29:55.709Z,54.50
2018-06-01T11:32:24.099Z,56.33
2018-06-01T11:34:52.426Z,53.70
2018-06-01T11:37:20.780Z,53.17
2018-06-01T11:39:49.826Z,43.20
2018-06-01T11:42:18.164Z,55.43
2018-06-01T11:44:46.431Z,52.37
2018-06-01T11:47:15.495Z,60.30
2018-06-01T11:49:43.772Z,60.77
2018-06-01T11:52:12.066Z,56.23
2018-06-01T11:54:41.115Z,57.60
2018-06-01T11:57:09.403Z,58.93
2018-06-01T11:59:37.750Z,58.40
2018-06-01T12:02:06.035Z,62.00
2018-06-01T12:04:34.315Z,60.63
2018-06-01T12:07:02.595Z,55.90
2018-06-01T12:09:31.049Z,59.53
2018-06-01T12:11:59.555Z,55.40
2018-06-01T12:14:27.814Z,55.63
2018-06-01T12:16:56.106Z,57.13
2018-06-01T12:19:24.382Z,53.27
2018-06-01T12:21:52.663Z,57.33
2018-06-01T12:24:20.926Z,52.57
2018-06-01T12:26:49.237Z,58.43
2018-06-01T12:29:19.306Z,57.10
2018-06-01T12:31:47.958Z,58.30
2018-06-01T12:34:16.247Z,53.90
2018-06-01T12:36:45.327Z,50.80
2018-06-01T12:39:14.362Z,54.13
2018-06-01T12:41:42.646Z,55.67
2018-06-01T12:44:10.974Z,50.90
2018-06-01T12:46:39.299Z,54.97
2018-06-01T12:49:07.631Z,57.03
2018-06-01T12:51:35.954Z,56.03
2018-06-01T12:54:04.249Z,53.97
2018-06-01T12:56:32.518Z,53.00
2018-06-01T12:59:00.850Z,53.23
2018-06-01T13:01:29.173Z,53.00
2018-06-01T13:03:57.464Z,53.13
2018-06-01T13:06:26.515Z,53.13
2018-06-01T13:08:54.831Z,50.13
2018-06-01T13:11:23.115Z,55.07
2018-06-01T13:13:51.561Z,46.73
2018-06-01T13:16:20.210Z,43.40
2018-06-01T13:18:48.521Z,43.47
2018-06-01T13:21:16.797Z,40.07
2018-06-01T13:23:45.315Z,36.17
2018-06-01T13:26:13.633Z,36.87
2018-06-01T13:28:42.993Z,34.40
2018-06-01T13:31:11.344Z,33.63
2018-06-01T13:33:41.269Z,35.60
2018-06-01T13:36:10.585Z,37.83
2018-06-01T13:38:39.626Z,35.53
2018-06-01T13:41:07.908Z,35.00
2018-06-01T13:43:37.179Z,36.73
2018-06-01T13:46:05.514Z,39.23
2018-06-01T13:48:34.587Z,35.50
2018-06-01T13:51:02.878Z,36.83
2018-06-01T13:53:31.927Z,38.50
2018-06-01T13:56:00.236Z,36.03
2018-06-01T13:58:28.506Z,38.27
2018-06-01T14:00:56.902Z,36.53
2018-06-01T14:03:25.176Z,40.30
2018-06-01T14:05:54.214Z,39.43
2018-06-01T14:08:22.490Z,42.67
2018-06-01T14:10:50.772Z,47.37
2018-06-01T14:13:19.058Z,46.03
2018-06-01T14:15:47.364Z,45.87
2018-06-01T14:18:16.407Z,47.47
2018-06-01T14:20:44.682Z,43.80
2018-06-01T14:23:13.002Z,46.27
2018-06-01T14:25:41.266Z,50.50
2018-06-01T14:28:09.542Z,50.17
2018-06-01T14:30:37.857Z,47.87
2018-06-01T14:33:06.218Z,51.83
2018-06-01T14:35:34.526Z,52.13
2018-06-01T14:38:02.831Z,47.30
2018-06-01T14:40:31.248Z,48.90
2018-06-01T14:42:59.575Z,49.70
2018-06-01T14:45:27.857Z,47.90
2018-06-01T14:47:56.189Z,49.03
2018-06-01T14:50:25.391Z,47.10
2018-06-01T14:52:53.872Z,47.40
2018-06-01T14:55:23.064Z,45.30
2018-06-01T14:57:52.126Z,44.53
2018-06-01T15:00:20.431Z,46.90
2018-06-01T15:02:49.486Z,43.00
2018-06-01T15:05:17.804Z,45.17
2018-06-01T15:07:46.230Z,43.87
2018-06-01T15:10:14.510Z,42.70
2018-06-01T15:12:42.763Z,46.23
2018-06-01T15:15:11.075Z,41.67
2018-06-01T15:17:40.858Z,43.97
2018-06-01T15:20:09.153Z,43.53
2018-06-01T15:22:37.598Z,44.80
2018-06-01T15:25:06.098Z,43.43
2018-06-01T15:27:34.491Z,40.73
2018-06-01T15:30:02.756Z,41.10
2018-06-01T15:32:31.026Z,39.23
2018-06-01T15:34:59.315Z,42.83
2018-06-01T15:37:29.290Z,41.77
2018-06-01T15:39:57.582Z,39.53
2018-06-01T15:42:25.866Z,38.73
2018-06-01T15:44:54.154Z,37.77
2018-06-01T15:47:23.962Z,37.13
2018-06-01T15:49:53.042Z,33.77
2018-06-01T15:52:21.569Z,34.17
2018-06-01T15:54:50.608Z,32.83
2018-06-01T15:57:18.974Z,31.43
2018-06-01T15:59:47.259Z,30.17
2018-06-01T16:02:15.548Z,30.17
2018-06-01T16:04:43.812Z,31.57
2018-06-01T16:07:12.230Z,30.00
2018-06-01T16:09:41.267Z,29.83
2018-06-01T16:12:09.562Z,27.23
2018-06-01T16:14:37.857Z,28.03
2018-06-01T16:17:06.143Z,29.03
2018-06-01T16:19:35.913Z,24.77
2018-06-01T16:22:04.218Z,26.47
2018-06-01T16:24:32.479Z,26.67
2018-06-01T16:27:00.755Z,26.03
2018-06-01T16:29:29.220Z,27.23
2018-06-01T16:31:57.617Z,26.27
2018-06-01T16:34:27.465Z,25.20
2018-06-01T16:36:56.504Z,23.27
2018-06-01T16:39:24.804Z,24.57
2018-06-01T16:41:53.105Z,25.60
2018-06-01T16:44:21.427Z,24.87
2018-06-01T16:46:49.797Z,23.60
2018-06-01T16:49:18.082Z,23.43
2018-06-01T16:51:46.388Z,22.87
2018-06-01T16:54:16.214Z,21.77
2018-06-01T16:56:44.513Z,20.60
2018-06-01T16:59:12.846Z,18.13
2018-06-01T17:01:41.207Z,18.80
2018-06-01T17:04:09.486Z,21.90
2018-06-01T17:06:37.782Z,20.60
2018-06-01T17:09:06.116Z,20.77
2018-06-01T17:11:34.423Z,19.97
2018-06-01T17:14:02.694Z,20.40
2018-06-01T17:16:30.989Z,20.07
2018-06-01T17:18:59.297Z,20.87
2018-06-01T17:21:27.691Z,20.10
2018-06-01T17:23:55.976Z,22.80
2018-06-01T17:26:25.694Z,20.97
2018-06-01T17:28:53.998Z,21.30
2018-06-01T17:31:22.401Z,21.87
2018-06-01T17:33:51.437Z,21.47
2018-06-01T17:36:19.738Z,20.70
2018-06-01T17:38:48.832Z,21.03
2018-06-01T17:41:17.122Z,19.77
2018-06-01T17:43:46.169Z,21.03
2018-06-01T17:46:14.489Z,21.27
2018-06-01T17:48:42.779Z,21.50
2018-06-01T17:51:12.045Z,22.17
2018-06-01T17:53:40.428Z,21.50
2018-06-01T17:56:08.770Z,20.87
2018-06-01T17:58:37.158Z,21.47
2018-06-01T18:01:05.448Z,22.13
2018-06-01T18:03:33.723Z,22.00
2018-06-01T18:06:02.010Z,22.50
2018-06-01T18:08:34.388Z,20.20
2018-06-01T18:11:03.475Z,21.03
2018-06-01T18:13:31.771Z,22.17
2018-06-01T18:16:00.058Z,21.60
2018-06-01T18:18:29.351Z,24.47
2018-06-01T18:20:58.436Z,21.83
2018-06-01T18:23:28.643Z,23.57
2018-06-01T18:25:56.981Z,24.87
2018-06-01T18:28:25.303Z,24.87
2018-06-01T18:30:53.614Z,22.97
2018-06-01T18:33:22.691Z,24.17
2018-06-01T18:35:50.990Z,25.67
2018-06-01T18:38:19.321Z,25.43
2018-06-01T18:40:48.394Z,24.50
2018-06-01T18:43:16.671Z,25.23
2018-06-01T18:45:44.953Z,27.63
2018-06-01T18:48:13.311Z,23.97
2018-06-01T18:50:41.567Z,26.00
2018-06-01T18:53:10.093Z,23.23
2018-06-01T18:55:38.438Z,26.97
2018-06-01T18:58:06.758Z,28.50
2018-06-01T19:00:35.857Z,26.50
2018-06-01T19:03:04.159Z,27.97
2018-06-01T19:05:32.508Z,26.20
2018-06-01T19:08:02.293Z,24.27
2018-06-01T19:10:30.629Z,27.00
2018-06-01T19:12:58.930Z,26.20
2018-06-01T19:15:28.824Z,27.13
2018-06-01T19:17:57.155Z,28.33
2018-06-01T19:20:26.767Z,27.70
2018-06-01T19:22:55.041Z,28.23
2018-06-01T19:25:24.159Z,25.57
2018-06-01T19:27:52.452Z,29.13
2018-06-01T19:30:20.745Z,29.10
2018-06-01T19:32:49.073Z,28.17
2018-06-01T19:35:18.184Z,30.03
2018-06-01T19:37:47.253Z,27.17
2018-06-01T19:40:15.589Z,29.20
2018-06-01T19:42:44.591Z,30.23
2018-06-01T19:45:12.904Z,32.07
2018-06-01T19:47:41.216Z,29.23
2018-06-01T19:50:09.563Z,32.73
2018-06-01T19:52:38.616Z,32.83
2018-06-01T19:57:40.624Z,35.07
2018-06-01T20:00:14.176Z,31.33
2018-06-01T20:02:42.485Z,32.90
2018-06-01T20:05:12.824Z,34.27
2018-06-01T20:07:41.092Z,31.30
2018-06-01T20:10:09.690Z,33.50
2018-06-01T20:12:38.747Z,35.97
2018-06-01T20:15:07.333Z,34.93
2018-06-01T20:17:35.641Z,32.63
2018-06-01T20:20:04.685Z,33.73
2018-06-01T20:22:33.007Z,34.97
2018-06-01T20:25:01.291Z,37.17
2018-06-01T20:27:31.431Z,38.17
2018-06-01T20:29:59.779Z,33.57
2018-06-01T20:32:28.249Z,36.40
2018-06-01T20:34:58.083Z,35.50
2018-06-01T20:37:26.431Z,35.93
2018-06-01T20:39:54.783Z,36.27
2018-06-01T20:42:23.089Z,38.27
2018-06-01T20:44:52.166Z,35.87
2018-06-01T20:47:21.474Z,39.30
2018-06-01T20:49:50.395Z,32.97
2018-06-01T20:52:19.896Z,37.70
2018-06-01T20:54:48.262Z,37.00
2018-06-01T20:57:17.334Z,37.10
2018-06-01T20:59:45.650Z,36.17
2018-06-01T21:02:14.020Z,33.63
2018-06-01T21:04:42.355Z,36.43
2018-06-01T21:07:10.655Z,35.40
2018-06-01T21:09:40.352Z,37.00
2018-06-01T21:12:08.658Z,33.40
2018-06-01T21:14:36.940Z,33.67
2018-06-01T21:17:05.255Z,34.17
2018-06-01T21:19:33.725Z,32.87
2018-06-01T21:22:02.237Z,34.10
2018-06-01T21:27:17.930Z,31.67
2018-06-01T21:29:46.291Z,33.73
2018-06-01T21:32:14.583Z,32.70
2018-06-01T21:34:44.547Z,33.90
2018-06-01T21:37:13.006Z,34.00
2018-06-01T21:39:41.460Z,34.03
2018-06-01T21:42:13.704Z,36.33
2018-06-01T21:44:41.983Z,38.40
2018-06-01T21:47:10.322Z,34.97
2018-06-01T21:49:39.394Z,35.93
2018-06-01T21:52:08.454Z,36.17
2018-06-01T21:54:36.764Z,37.23
2018-06-01T21:57:12.991Z,34.40
2018-06-01T21:59:45.261Z,40.60
2018-06-01T22:02:13.555Z,37.90
2018-06-01T22:04:41.912Z,40.27
2018-06-01T22:07:10.347Z,35.90
2018-06-01T22:09:40.563Z,36.77
2018-06-01T22:12:09.650Z,33.87
2018-06-01T22:14:37.974Z,34.90
2018-06-01T22:17:06.261Z,33.50
2018-06-01T22:19:34.563Z,32.57
2018-06-01T22:22:03.641Z,32.70
2018-06-01T22:24:32.068Z,31.30
2018-06-01T22:27:00.329Z,30.60
2018-06-01T22:29:28.644Z,32.57
2018-06-01T22:31:57.050Z,30.93
2018-06-01T22:34:27.370Z,29.73
2018-06-01T22:36:55.630Z,31.67
2018-06-01T22:39:25.153Z,33.10
2018-06-01T22:41:53.399Z,33.37
2018-06-01T22:44:21.732Z,32.97
2018-06-01T22:46:50.780Z,34.97
2018-06-01T22:49:19.092Z,32.67
2018-06-01T22:51:48.257Z,33.43
2018-06-01T22:54:16.526Z,38.03
2018-06-01T22:56:45.450Z,37.57
2018-06-01T22:59:15.663Z,37.53
2018-06-01T23:01:43.955Z,37.07
2018-06-01T23:04:13.003Z,39.57
2018-06-01T23:06:41.283Z,42.17
2018-06-01T23:09:09.583Z,38.00
2018-06-01T23:11:38.678Z,35.77
2018-06-01T23:14:08.469Z,40.70
2018-06-01T23:16:36.820Z,40.70
2018-06-01T23:19:05.095Z,41.43
2018-06-01T23:21:33.398Z,40.03
2018-06-01T23:24:01.685Z,35.80
2018-06-01T23:26:29.988Z,40.00
2018-06-01T23:29:00.689Z,39.83
2018-06-01T23:31:28.991Z,40.47
2018-06-01T23:33:58.024Z,42.23
2018-06-01T23:36:26.427Z,41.27
2018-06-01T23:38:54.726Z,40.13
2018-06-01T23:41:23.810Z,44.83
2018-06-01T23:43:52.862Z,43.50
2018-06-01T23:46:21.198Z,39.80
2018-06-01T23:48:49.496Z,38.53
2018-06-01T23:51:18.570Z,43.53
2018-06-01T23:53:47.662Z,40.30
2018-06-01T23:56:16.759Z,36.50
2018-06-01T23:58:45.815Z,35.90
